Koshkonong, Missouri
Current Conditions -  °F | °C
As of 5:53 AM on Tuesday 27 Jan 2015 (Local Time) from KUNO Reporting Station
Clear Clear  
Wind Chill: 36°   Ceiling: Unl
Heat Index: 40°   Visibility: 10mi
Dew Point: 32°   Wind: 6mph
Humidity: 73%   Direction: 330°NNW
Pressure: 30.05"   Gusts: NA
Location:  36.6°N, 91.65°W
Report Text: KUNO 271153Z AUTO 33005KT 10SM CLR 04/00 A3005 RMK AO2 SLP176 T00440000 10078 20044 53017
Loading
Personal Weather Stations






























Interactive Weather Map New forecast layout! Learn more

10-Day Weather Forecast

Advertisements
Track Severe Weather on mobile